Terminal Aerodrome Forecast
Issued by NWS

Home | Current Version | Previous Version | Graphics & Text | Print | Product List | Glossary On
Versions: 1 2 3 4 5 6 7 8 9 10 11 12 13 14 15 16
000
FTUS43 KICT 262322
TAFRSL
TAF
KRSL 262322Z 2700/2724 33009KT P6SM SKC
     FM270400 VRB04KT P6SM SKC
     FM271100 14005KT P6SM SCT100 BKN250
     FM271600 13011KT P6SM OVC090
     FM272000 12015G22KT P6SM VCSH SCT040 OVC080=

USA.gov is the U.S. government's official web portal to all federal, state and local government web resources and services.